Allin, Illinois
Current Conditions -  °F | °C
As of 12:56 PM on Thursday 23 Oct 2014 (Local Time) from KBMI Reporting Station
Clear Clear  
Wind Chill: 13°   Ceiling: Unl
Heat Index: 13°   Visibility: 10mi
Dew Point:   Wind: 15mph
Humidity: 64%   Direction: 230°SW
Pressure: 30.19"   Gusts: 21mph
Location:  40.4427°N, 89.2086°W
Report Text: KBMI 231756Z 23013G18KT 10SM CLR 13/07 A3019 RMK AO2 58007 60000 T01330066 10133 20033 SLP228
Loading
Personal Weather Stations






























Interactive Weather Map
Tropical Storm Tracking
New forecast layout! Learn more

10-Day Weather Forecast

Advertisements
Track Severe Weather on mobile